sensor_id;sensor_type;location;lat;lon;timestamp;pressure;altitude;pressure_sealevel;temperature;humidity
5062;BME280;2351;50.812;12.872;2023-02-20T00:00:31;98570.34;;;2.37;100.00
5062;BME280;2351;50.812;12.872;2023-02-20T00:03:03;98560.47;;;2.44;100.00
5062;BME280;2351;50.812;12.872;2023-02-20T00:05:37;98567.22;;;2.50;100.00
5062;BME280;2351;50.812;12.872;2023-02-20T00:08:08;98570.53;;;2.53;100.00
5062;BME280;2351;50.812;12.872;2023-02-20T00:10:40;98572.13;;;2.58;100.00
5062;BME280;2351;50.812;12.872;2023-02-20T00:13:12;98564.94;;;2.63;100.00
5062;BME280;2351;50.812;12.872;2023-02-20T00:15:44;98569.25;;;2.64;100.00
5062;BME280;2351;50.812;12.872;2023-02-20T00:18:15;98566.63;;;2.64;100.00
5062;BME280;2351;50.812;12.872;2023-02-20T00:20:48;98565.63;;;2.66;100.00
5062;BME280;2351;50.812;12.872;2023-02-20T00:23:20;98562.09;;;2.67;100.00
5062;BME280;2351;50.812;12.872;2023-02-20T00:25:52;98561.25;;;2.67;100.00
5062;BME280;2351;50.812;12.872;2023-02-20T00:28:24;98560.28;;;2.69;100.00
5062;BME280;2351;50.812;12.872;2023-02-20T00:30:56;98565.50;;;2.69;100.00
5062;BME280;2351;50.812;12.872;2023-02-20T00:33:27;98562.81;;;2.71;100.00
5062;BME280;2351;50.812;12.872;2023-02-20T00:36:02;98560.97;;;2.73;100.00
5062;BME280;2351;50.812;12.872;2023-02-20T00:38:33;98558.31;;;2.75;100.00
5062;BME280;2351;50.812;12.872;2023-02-20T00:41:05;98558.16;;;2.78;100.00
5062;BME280;2351;50.812;12.872;2023-02-20T00:43:37;98550.25;;;2.79;100.00
5062;BME280;2351;50.812;12.872;2023-02-20T00:46:10;98557.09;;;2.82;100.00
5062;BME280;2351;50.812;12.872;2023-02-20T00:48:42;98552.66;;;2.84;100.00
5062;BME280;2351;50.812;12.872;2023-02-20T00:51:15;98555.22;;;2.85;100.00
5062;BME280;2351;50.812;12.872;2023-02-20T00:53:47;98548.00;;;2.91;100.00
5062;BME280;2351;50.812;12.872;2023-02-20T00:56:19;98549.66;;;2.93;100.00
5062;BME280;2351;50.812;12.872;2023-02-20T00:58:50;98548.50;;;2.99;100.00
5062;BME280;2351;50.812;12.872;2023-02-20T01:01:23;98537.91;;;3.02;100.00
5062;BME280;2351;50.812;12.872;2023-02-20T01:03:55;98542.09;;;3.06;100.00
5062;BME280;2351;50.812;12.872;2023-02-20T01:06:28;98548.03;;;3.10;100.00
5062;BME280;2351;50.812;12.872;2023-02-20T01:08:59;98542.44;;;3.17;100.00
5062;BME280;2351;50.812;12.872;2023-02-20T01:11:31;98542.06;;;3.25;100.00
5062;BME280;2351;50.812;12.872;2023-02-20T01:14:03;98542.78;;;3.29;100.00
5062;BME280;2351;50.812;12.872;2023-02-20T01:16:36;98530.53;;;3.29;100.00
5062;BME280;2351;50.812;12.872;2023-02-20T01:19:08;98525.25;;;3.31;100.00
5062;BME280;2351;50.812;12.872;2023-02-20T01:21:41;98507.78;;;3.31;100.00
5062;BME280;2351;50.812;12.872;2023-02-20T01:24:13;98498.09;;;3.34;100.00
5062;BME280;2351;50.812;12.872;2023-02-20T01:26:46;98500.75;;;3.32;100.00
5062;BME280;2351;50.812;12.872;2023-02-20T01:29:18;98508.56;;;3.34;100.00
5062;BME280;2351;50.812;12.872;2023-02-20T01:31:51;98513.78;;;3.34;100.00
5062;BME280;2351;50.812;12.872;2023-02-20T01:34:22;98518.09;;;3.35;100.00
5062;BME280;2351;50.812;12.872;2023-02-20T01:36:56;98528.47;;;3.36;100.00
5062;BME280;2351;50.812;12.872;2023-02-20T01:39:28;98537.13;;;3.38;100.00
5062;BME280;2351;50.812;12.872;2023-02-20T01:42:02;98538.66;;;3.42;100.00
5062;BME280;2351;50.812;12.872;2023-02-20T01:44:36;98522.88;;;3.44;100.00
5062;BME280;2351;50.812;12.872;2023-02-20T01:47:11;98525.44;;;3.45;100.00
5062;BME280;2351;50.812;12.872;2023-02-20T01:49:48;98517.59;;;3.45;100.00
5062;BME280;2351;50.812;12.872;2023-02-20T01:52:25;98514.09;;;3.45;100.00
5062;BME280;2351;50.812;12.872;2023-02-20T01:55:00;98517.59;;;3.45;100.00
5062;BME280;2351;50.812;12.872;2023-02-20T01:57:34;98519.19;;;3.48;100.00
5062;BME280;2351;50.812;12.872;2023-02-20T02:00:09;98518.22;;;3.51;100.00
5062;BME280;2351;50.812;12.872;2023-02-20T02:02:50;98511.16;;;3.53;100.00
5062;BME280;2351;50.812;12.872;2023-02-20T02:05:23;98507.66;;;3.52;100.00
5062;BME280;2351;50.812;12.872;2023-02-20T02:07:58;98505.13;;;3.51;100.00
5062;BME280;2351;50.812;12.872;2023-02-20T02:10:35;98499.81;;;3.52;100.00
5062;BME280;2351;50.812;12.872;2023-02-20T02:13:08;98497.19;;;3.52;100.00
5062;BME280;2351;50.812;12.872;2023-02-20T02:15:41;98510.38;;;3.51;100.00
5062;BME280;2351;50.812;12.872;2023-02-20T02:18:25;98509.38;;;3.53;100.00
5062;BME280;2351;50.812;12.872;2023-02-20T02:21:25;98518.91;;;3.54;100.00
5062;BME280;2351;50.812;12.872;2023-02-20T02:24:32;98509.38;;;3.53;100.00
5062;BME280;2351;50.812;12.872;2023-02-20T02:27:21;98503.22;;;3.54;100.00
5062;BME280;2351;50.812;12.872;2023-02-20T02:33:22;98481.25;;;3.57;100.00
5062;BME280;2351;50.812;12.872;2023-02-20T02:36:37;98480.34;;;3.58;100.00
5062;BME280;2351;50.812;12.872;2023-02-20T02:39:15;98477.66;;;3.59;100.00
5062;BME280;2351;50.812;12.872;2023-02-20T02:41:55;98476.75;;;3.60;100.00
5062;BME280;2351;50.812;12.872;2023-02-20T02:44:31;98467.97;;;3.61;100.00
5062;BME280;2351;50.812;12.872;2023-02-20T02:47:09;98461.97;;;3.59;100.00
5062;BME280;2351;50.812;12.872;2023-02-20T02:49:46;98459.41;;;3.58;100.00
5062;BME280;2351;50.812;12.872;2023-02-20T02:52:22;98462.00;;;3.58;100.00
5062;BME280;2351;50.812;12.872;2023-02-20T02:55:23;98440.16;;;3.59;100.00
5062;BME280;2351;50.812;12.872;2023-02-20T02:57:56;98438.41;;;3.59;100.00
5062;BME280;2351;50.812;12.872;2023-02-20T03:00:32;98446.94;;;3.63;100.00
5062;BME280;2351;50.812;12.872;2023-02-20T03:03:09;98438.16;;;3.64;100.00
5062;BME280;2351;50.812;12.872;2023-02-20T03:09:12;98433.94;;;3.61;100.00
5062;BME280;2351;50.812;12.872;2023-02-20T03:11:47;98438.31;;;3.61;100.00
5062;BME280;2351;50.812;12.872;2023-02-20T03:14:22;98430.41;;;3.63;100.00
5062;BME280;2351;50.812;12.872;2023-02-20T03:17:18;98436.31;;;3.66;100.00
5062;BME280;2351;50.812;12.872;2023-02-20T03:19:58;98432.78;;;3.67;100.00
5062;BME280;2351;50.812;12.872;2023-02-20T03:22:33;98433.59;;;3.68;100.00
5062;BME280;2351;50.812;12.872;2023-02-20T03:25:10;98430.94;;;3.69;100.00
5062;BME280;2351;50.812;12.872;2023-02-20T03:27:48;98431.56;;;3.74;100.00
5062;BME280;2351;50.812;12.872;2023-02-20T03:30:27;98433.16;;;3.77;100.00
5062;BME280;2351;50.812;12.872;2023-02-20T03:33:03;98436.56;;;3.79;100.00
5062;BME280;2351;50.812;12.872;2023-02-20T03:35:53;98435.69;;;3.79;100.00
5062;BME280;2351;50.812;12.872;2023-02-20T03:38:46;98437.31;;;3.81;100.00
5062;BME280;2351;50.812;12.872;2023-02-20T03:41:38;98436.41;;;3.82;100.00
5062;BME280;2351;50.812;12.872;2023-02-20T03:44:32;98438.16;;;3.82;100.00
5062;BME280;2351;50.812;12.872;2023-02-20T03:47:06;98420.69;;;3.82;100.00
5062;BME280;2351;50.812;12.872;2023-02-20T03:49:41;98418.91;;;3.83;100.00
5062;BME280;2351;50.812;12.872;2023-02-20T03:52:13;98424.91;;;3.85;100.00
5062;BME280;2351;50.812;12.872;2023-02-20T03:54:45;98427.63;;;3.83;100.00
5062;BME280;2351;50.812;12.872;2023-02-20T03:57:20;98425.00;;;3.83;100.00
5062;BME280;2351;50.812;12.872;2023-02-20T03:59:57;98444.09;;;3.85;100.00
5062;BME280;2351;50.812;12.872;2023-02-20T04:02:32;98453.63;;;3.86;100.00
5062;BME280;2351;50.812;12.872;2023-02-20T04:05:09;98451.97;;;3.85;100.00
5062;BME280;2351;50.812;12.872;2023-02-20T04:07:48;98448.38;;;3.86;100.00
5062;BME280;2351;50.812;12.872;2023-02-20T04:10:25;98444.94;;;3.86;100.00
5062;BME280;2351;50.812;12.872;2023-02-20T04:12:59;98445.84;;;3.85;100.00
5062;BME280;2351;50.812;12.872;2023-02-20T04:15:34;98439.00;;;3.82;100.00
5062;BME280;2351;50.812;12.872;2023-02-20T04:18:09;98432.09;;;3.81;100.00
5062;BME280;2351;50.812;12.872;2023-02-20T04:20:42;98421.66;;;3.80;100.00
5062;BME280;2351;50.812;12.872;2023-02-20T04:23:16;98423.38;;;3.81;100.00
5062;BME280;2351;50.812;12.872;2023-02-20T04:25:51;98432.16;;;3.80;100.00
5062;BME280;2351;50.812;12.872;2023-02-20T04:28:26;98433.22;;;3.75;100.00
5062;BME280;2351;50.812;12.872;2023-02-20T04:30:59;98433.22;;;3.75;100.00
5062;BME280;2351;50.812;12.872;2023-02-20T04:33:31;98434.22;;;3.73;100.00
5062;BME280;2351;50.812;12.872;2023-02-20T04:36:04;98426.38;;;3.73;100.00
5062;BME280;2351;50.812;12.872;2023-02-20T04:38:35;98422.84;;;3.74;100.00
5062;BME280;2351;50.812;12.872;2023-02-20T04:41:07;98419.28;;;3.75;100.00
5062;BME280;2351;50.812;12.872;2023-02-20T04:43:39;98416.66;;;3.75;100.00
5062;BME280;2351;50.812;12.872;2023-02-20T04:46:12;98417.50;;;3.75;100.00
5062;BME280;2351;50.812;12.872;2023-02-20T04:48:44;98438.44;;;3.75;100.00
5062;BME280;2351;50.812;12.872;2023-02-20T04:51:15;98434.06;;;3.76;100.00
5062;BME280;2351;50.812;12.872;2023-02-20T04:53:47;98441.84;;;3.77;100.00
5062;BME280;2351;50.812;12.872;2023-02-20T04:56:18;98445.31;;;3.78;100.00
5062;BME280;2351;50.812;12.872;2023-02-20T04:58:50;98458.28;;;3.81;100.00
5062;BME280;2351;50.812;12.872;2023-02-20T05:01:23;98444.31;;;3.81;100.00
5062;BME280;2351;50.812;12.872;2023-02-20T05:03:55;98437.47;;;3.78;100.00
5062;BME280;2351;50.812;12.872;2023-02-20T05:06:27;98440.88;;;3.80;100.00
5062;BME280;2351;50.812;12.872;2023-02-20T05:08:58;98437.22;;;3.83;100.00
5062;BME280;2351;50.812;12.872;2023-02-20T05:11:30;98425.97;;;3.81;100.00
5062;BME280;2351;50.812;12.872;2023-02-20T05:14:02;98433.00;;;3.80;100.00
5062;BME280;2351;50.812;12.872;2023-02-20T05:16:36;98423.44;;;3.79;100.00
5062;BME280;2351;50.812;12.872;2023-02-20T05:19:08;98427.06;;;3.76;100.00
5062;BME280;2351;50.812;12.872;2023-02-20T05:21:41;98431.38;;;3.77;100.00
5062;BME280;2351;50.812;12.872;2023-02-20T05:24:30;98420.06;;;3.77;100.00
5062;BME280;2351;50.812;12.872;2023-02-20T05:27:02;98416.59;;;3.76;100.00
5062;BME280;2351;50.812;12.872;2023-02-20T05:29:34;98408.66;;;3.78;100.00
5062;BME280;2351;50.812;12.872;2023-02-20T05:32:07;98400.97;;;3.75;100.00
5062;BME280;2351;50.812;12.872;2023-02-20T05:34:39;98395.72;;;3.75;100.00
5062;BME280;2351;50.812;12.872;2023-02-20T05:37:12;98399.94;;;3.77;100.00
5062;BME280;2351;50.812;12.872;2023-02-20T05:39:44;98388.56;;;3.79;100.00
5062;BME280;2351;50.812;12.872;2023-02-20T05:42:17;98395.81;;;3.73;100.00
5062;BME280;2351;50.812;12.872;2023-02-20T05:44:48;98393.25;;;3.72;100.00
5062;BME280;2351;50.812;12.872;2023-02-20T05:47:21;98390.78;;;3.69;100.00
5062;BME280;2351;50.812;12.872;2023-02-20T05:49:53;98377.56;;;3.72;100.00
5062;BME280;2351;50.812;12.872;2023-02-20T05:52:25;98370.78;;;3.68;100.00
5062;BME280;2351;50.812;12.872;2023-02-20T05:54:56;98362.91;;;3.68;100.00
5062;BME280;2351;50.812;12.872;2023-02-20T05:57:28;98357.00;;;3.64;100.00
5062;BME280;2351;50.812;12.872;2023-02-20T06:00:00;98356.09;;;3.65;100.00
5062;BME280;2351;50.812;12.872;2023-02-20T06:02:33;98362.34;;;3.63;100.00
5062;BME280;2351;50.812;12.872;2023-02-20T06:05:05;98369.25;;;3.64;100.00
5062;BME280;2351;50.812;12.872;2023-02-20T06:07:37;98371.94;;;3.62;100.00
5062;BME280;2351;50.812;12.872;2023-02-20T06:10:09;98369.94;;;3.67;100.00
5062;BME280;2351;50.812;12.872;2023-02-20T06:12:40;98363.69;;;3.70;100.00
5062;BME280;2351;50.812;12.872;2023-02-20T06:15:12;98367.16;;;3.70;100.00
5062;BME280;2351;50.812;12.872;2023-02-20T06:17:45;98383.88;;;3.68;100.00
5062;BME280;2351;50.812;12.872;2023-02-20T06:20:17;98373.25;;;3.71;100.00
5062;BME280;2351;50.812;12.872;2023-02-20T06:22:50;98358.31;;;3.73;100.00
5062;BME280;2351;50.812;12.872;2023-02-20T06:25:22;98376.78;;;3.70;100.00
5062;BME280;2351;50.812;12.872;2023-02-20T06:27:53;98368.94;;;3.70;100.00
5062;BME280;2351;50.812;12.872;2023-02-20T06:30:25;98372.31;;;3.72;100.00
5062;BME280;2351;50.812;12.872;2023-02-20T06:32:58;98376.47;;;3.76;100.00
5062;BME280;2351;50.812;12.872;2023-02-20T06:35:30;98375.63;;;3.75;100.00
5062;BME280;2351;50.812;12.872;2023-02-20T06:38:01;98368.78;;;3.73;100.00
5062;BME280;2351;50.812;12.872;2023-02-20T06:40:33;98366.00;;;3.76;100.00
5062;BME280;2351;50.812;12.872;2023-02-20T06:43:05;98365.63;;;3.66;100.00
5062;BME280;2351;50.812;12.872;2023-02-20T06:45:37;98359.53;;;3.66;100.00
5062;BME280;2351;50.812;12.872;2023-02-20T06:48:10;98353.22;;;3.70;100.00
5062;BME280;2351;50.812;12.872;2023-02-20T06:50:43;98344.28;;;3.74;100.00
5062;BME280;2351;50.812;12.872;2023-02-20T06:53:15;98344.13;;;3.77;100.00
5062;BME280;2351;50.812;12.872;2023-02-20T06:55:46;98340.34;;;3.83;100.00
5062;BME280;2351;50.812;12.872;2023-02-20T06:58:18;98348.44;;;3.78;100.00
5062;BME280;2351;50.812;12.872;2023-02-20T07:00:50;98341.56;;;3.75;100.00
5062;BME280;2351;50.812;12.872;2023-02-20T07:03:23;98334.19;;;3.84;100.00
5062;BME280;2351;50.812;12.872;2023-02-20T07:05:55;98341.63;;;3.91;100.00
5062;BME280;2351;50.812;12.872;2023-02-20T07:08:26;98343.63;;;3.86;100.00
5062;BME280;2351;50.812;12.872;2023-02-20T07:10:58;98331.00;;;3.95;100.00
5062;BME280;2351;50.812;12.872;2023-02-20T07:13:30;98334.84;;;4.05;100.00
5062;BME280;2351;50.812;12.872;2023-02-20T07:16:02;98336.59;;;4.04;100.00
5062;BME280;2351;50.812;12.872;2023-02-20T07:18:35;98345.16;;;4.08;100.00
5062;BME280;2351;50.812;12.872;2023-02-20T07:21:07;98333.72;;;4.09;100.00
5062;BME280;2351;50.812;12.872;2023-02-20T07:23:38;98328.47;;;4.09;100.00
5062;BME280;2351;50.812;12.872;2023-02-20T07:26:16;98334.09;;;4.19;100.00
5062;BME280;2351;50.812;12.872;2023-02-20T07:28:48;98331.22;;;4.24;100.00
5062;BME280;2351;50.812;12.872;2023-02-20T07:31:20;98328.03;;;4.34;100.00
5062;BME280;2351;50.812;12.872;2023-02-20T07:33:53;98314.81;;;4.36;100.00
5062;BME280;2351;50.812;12.872;2023-02-20T07:36:25;98317.53;;;4.34;100.00
5062;BME280;2351;50.812;12.872;2023-02-20T07:38:58;98316.09;;;4.45;100.00
5062;BME280;2351;50.812;12.872;2023-02-20T07:41:30;98308.31;;;4.43;100.00
5062;BME280;2351;50.812;12.872;2023-02-20T07:44:02;98310.78;;;4.46;100.00
5062;BME280;2351;50.812;12.872;2023-02-20T07:46:35;98310.25;;;4.56;100.00
5062;BME280;2351;50.812;12.872;2023-02-20T07:49:08;98315.31;;;4.59;100.00
5062;BME280;2351;50.812;12.872;2023-02-20T07:51:39;98312.25;;;4.66;100.00
5062;BME280;2351;50.812;12.872;2023-02-20T07:54:11;98307.56;;;4.73;100.00
5062;BME280;2351;50.812;12.872;2023-02-20T07:56:43;98305.66;;;4.75;100.00
5062;BME280;2351;50.812;12.872;2023-02-20T07:59:14;98282.91;;;4.76;100.00
5062;BME280;2351;50.812;12.872;2023-02-20T08:01:46;98280.88;;;4.81;100.00
5062;BME280;2351;50.812;12.872;2023-02-20T08:04:19;98261.72;;;4.95;100.00
5062;BME280;2351;50.812;12.872;2023-02-20T08:06:51;98277.38;;;4.96;100.00
5062;BME280;2351;50.812;12.872;2023-02-20T08:09:22;98280.31;;;5.51;100.00
5062;BME280;2351;50.812;12.872;2023-02-20T08:11:55;98285.84;;;5.90;100.00
5062;BME280;2351;50.812;12.872;2023-02-20T08:14:26;98268.69;;;6.13;100.00
5062;BME280;2351;50.812;12.872;2023-02-20T08:16:58;98279.56;;;6.63;100.00
5062;BME280;2351;50.812;12.872;2023-02-20T08:19:31;98269.31;;;7.39;100.00
5062;BME280;2351;50.812;12.872;2023-02-20T08:22:03;98276.88;;;8.09;94.30
5062;BME280;2351;50.812;12.872;2023-02-20T08:24:35;98237.81;;;8.27;86.24
5062;BME280;2351;50.812;12.872;2023-02-20T08:27:06;98246.50;;;8.40;81.79
5062;BME280;2351;50.812;12.872;2023-02-20T08:29:38;98227.47;;;8.61;85.54
5062;BME280;2351;50.812;12.872;2023-02-20T08:32:10;98216.25;;;8.82;84.62
5062;BME280;2351;50.812;12.872;2023-02-20T08:34:43;98213.53;;;8.59;79.40
5062;BME280;2351;50.812;12.872;2023-02-20T08:37:14;98210.75;;;8.36;80.98
5062;BME280;2351;50.812;12.872;2023-02-20T08:39:46;98222.81;;;8.27;79.74
5062;BME280;2351;50.812;12.872;2023-02-20T08:42:18;98231.16;;;8.21;81.11
5062;BME280;2351;50.812;12.872;2023-02-20T08:44:49;98226.00;;;8.20;81.19
5062;BME280;2351;50.812;12.872;2023-02-20T08:47:21;98216.50;;;8.17;81.66
5062;BME280;2351;50.812;12.872;2023-02-20T08:49:54;98205.69;;;8.09;81.93
5062;BME280;2351;50.812;12.872;2023-02-20T08:52:26;98217.00;;;7.98;81.07
5062;BME280;2351;50.812;12.872;2023-02-20T08:54:58;98214.94;;;7.77;80.74
5062;BME280;2351;50.812;12.872;2023-02-20T08:57:29;98222.72;;;7.66;81.88
5062;BME280;2351;50.812;12.872;2023-02-20T09:00:04;98214.22;;;7.49;82.47
5062;BME280;2351;50.812;12.872;2023-02-20T09:02:36;98226.44;;;7.50;83.91
5062;BME280;2351;50.812;12.872;2023-02-20T09:05:09;98223.38;;;7.57;82.98
5062;BME280;2351;50.812;12.872;2023-02-20T09:07:40;98226.09;;;7.55;83.36
5062;BME280;2351;50.812;12.872;2023-02-20T09:10:12;98230.84;;;7.63;84.55
5062;BME280;2351;50.812;12.872;2023-02-20T09:12:44;98219.56;;;7.74;83.35
5062;BME280;2351;50.812;12.872;2023-02-20T09:15:16;98224.63;;;7.77;83.85
5062;BME280;2351;50.812;12.872;2023-02-20T09:17:49;98226.94;;;7.81;83.07
5062;BME280;2351;50.812;12.872;2023-02-20T09:20:22;98226.50;;;7.88;82.38
5062;BME280;2351;50.812;12.872;2023-02-20T09:22:56;98233.44;;;7.89;82.21
5062;BME280;2351;50.812;12.872;2023-02-20T09:25:29;98217.22;;;7.95;82.39
5062;BME280;2351;50.812;12.872;2023-02-20T09:28:00;98227.75;;;7.95;82.53
5062;BME280;2351;50.812;12.872;2023-02-20T09:30:32;98231.56;;;7.91;81.10
5062;BME280;2351;50.812;12.872;2023-02-20T09:33:04;98220.59;;;7.84;80.19
5062;BME280;2351;50.812;12.872;2023-02-20T09:35:37;98226.50;;;7.88;81.02
5062;BME280;2351;50.812;12.872;2023-02-20T09:38:09;98223.56;;;7.92;81.11
5062;BME280;2351;50.812;12.872;2023-02-20T09:40:41;98223.22;;;7.97;81.25
5062;BME280;2351;50.812;12.872;2023-02-20T09:43:21;98214.63;;;8.06;81.33
5062;BME280;2351;50.812;12.872;2023-02-20T09:45:58;98210.28;;;8.18;81.76
5062;BME280;2351;50.812;12.872;2023-02-20T09:48:43;98201.38;;;8.32;80.33
5062;BME280;2351;50.812;12.872;2023-02-20T09:51:20;98200.09;;;8.38;79.13
5062;BME280;2351;50.812;12.872;2023-02-20T09:53:55;98196.47;;;8.39;78.81
5062;BME280;2351;50.812;12.872;2023-02-20T09:56:31;98203.41;;;8.28;76.30
5062;BME280;2351;50.812;12.872;2023-02-20T09:59:07;98198.56;;;8.22;77.34
5062;BME280;2351;50.812;12.872;2023-02-20T10:01:49;98188.34;;;8.18;76.03
5062;BME280;2351;50.812;12.872;2023-02-20T10:04:25;98186.38;;;8.08;76.05
5062;BME280;2351;50.812;12.872;2023-02-20T10:07:03;98176.34;;;8.13;76.87
5062;BME280;2351;50.812;12.872;2023-02-20T10:09:39;98166.31;;;8.19;76.38
5062;BME280;2351;50.812;12.872;2023-02-20T10:12:16;98151.31;;;8.19;76.09
5062;BME280;2351;50.812;12.872;2023-02-20T10:15:15;98162.88;;;8.29;75.71
5062;BME280;2351;50.812;12.872;2023-02-20T10:17:57;98149.25;;;8.36;75.29
5062;BME280;2351;50.812;12.872;2023-02-20T10:20:36;98157.56;;;8.42;74.16
5062;BME280;2351;50.812;12.872;2023-02-20T10:23:18;98159.66;;;8.50;73.53
5062;BME280;2351;50.812;12.872;2023-02-20T10:25:57;98167.44;;;8.52;73.78
5062;BME280;2351;50.812;12.872;2023-02-20T10:28:31;98150.13;;;8.61;73.76
5062;BME280;2351;50.812;12.872;2023-02-20T10:31:11;98158.41;;;8.67;73.99
5062;BME280;2351;50.812;12.872;2023-02-20T10:33:53;98175.13;;;8.79;73.16
5062;BME280;2351;50.812;12.872;2023-02-20T10:36:29;98170.78;;;8.78;73.01
5062;BME280;2351;50.812;12.872;2023-02-20T10:39:08;98167.94;;;8.93;73.95
5062;BME280;2351;50.812;12.872;2023-02-20T10:41:43;98159.81;;;9.07;73.51
5062;BME280;2351;50.812;12.872;2023-02-20T10:44:18;98155.88;;;9.13;72.38
5062;BME280;2351;50.812;12.872;2023-02-20T10:46:59;98153.50;;;9.32;73.34
5062;BME280;2351;50.812;12.872;2023-02-20T10:49:37;98145.91;;;9.50;72.01
5062;BME280;2351;50.812;12.872;2023-02-20T10:52:15;98129.22;;;9.61;71.23
5062;BME280;2351;50.812;12.872;2023-02-20T10:54:54;98134.38;;;9.63;70.58
5062;BME280;2351;50.812;12.872;2023-02-20T10:57:30;98144.94;;;9.74;71.40
5062;BME280;2351;50.812;12.872;2023-02-20T11:00:08;98147.34;;;9.89;70.34
5062;BME280;2351;50.812;12.872;2023-02-20T11:02:47;98131.97;;;9.83;67.58
5062;BME280;2351;50.812;12.872;2023-02-20T11:05:21;98135.28;;;9.96;67.80
5062;BME280;2351;50.812;12.872;2023-02-20T11:07:53;98134.16;;;10.10;68.41
5062;BME280;2351;50.812;12.872;2023-02-20T11:10:26;98139.38;;;10.33;67.87
5062;BME280;2351;50.812;12.872;2023-02-20T11:12:58;98115.47;;;10.34;67.06
5062;BME280;2351;50.812;12.872;2023-02-20T11:15:32;98113.91;;;10.43;66.40
5062;BME280;2351;50.812;12.872;2023-02-20T11:18:16;98102.78;;;10.49;65.82
5062;BME280;2351;50.812;12.872;2023-02-20T11:20:51;98089.00;;;10.67;66.32
5062;BME280;2351;50.812;12.872;2023-02-20T11:23:33;98084.03;;;10.74;64.88
5062;BME280;2351;50.812;12.872;2023-02-20T11:26:21;98093.88;;;10.50;63.88
5062;BME280;2351;50.812;12.872;2023-02-20T11:28:57;98096.22;;;10.65;64.32
5062;BME280;2351;50.812;12.872;2023-02-20T11:31:30;98069.63;;;10.88;63.72
5062;BME280;2351;50.812;12.872;2023-02-20T11:34:04;98074.38;;;10.94;63.78
5062;BME280;2351;50.812;12.872;2023-02-20T11:36:39;98068.66;;;10.89;62.88
5062;BME280;2351;50.812;12.872;2023-02-20T11:39:20;98055.00;;;10.72;62.99
5062;BME280;2351;50.812;12.872;2023-02-20T11:42:08;98047.97;;;10.61;63.23
5062;BME280;2351;50.812;12.872;2023-02-20T11:44:41;98043.09;;;10.57;63.62
5062;BME280;2351;50.812;12.872;2023-02-20T11:47:22;98046.00;;;10.53;63.74
5062;BME280;2351;50.812;12.872;2023-02-20T11:50:17;98042.31;;;10.66;63.50
5062;BME280;2351;50.812;12.872;2023-02-20T11:52:58;98031.78;;;10.54;61.84
5062;BME280;2351;50.812;12.872;2023-02-20T11:55:32;98028.38;;;10.64;62.28
5062;BME280;2351;50.812;12.872;2023-02-20T11:58:09;98039.94;;;10.63;61.70
5062;BME280;2351;50.812;12.872;2023-02-20T12:00:52;98003.91;;;10.50;60.98
5062;BME280;2351;50.812;12.872;2023-02-20T12:03:25;98024.81;;;10.32;61.83
5062;BME280;2351;50.812;12.872;2023-02-20T12:05:59;98025.38;;;10.36;63.13
5062;BME280;2351;50.812;12.872;2023-02-20T12:08:39;98014.31;;;10.42;62.70
5062;BME280;2351;50.812;12.872;2023-02-20T12:11:15;98014.34;;;10.31;62.95
5062;BME280;2351;50.812;12.872;2023-02-20T12:13:51;98008.06;;;10.32;64.09
5062;BME280;2351;50.812;12.872;2023-02-20T12:16:55;98005.53;;;10.42;63.89
5062;BME280;2351;50.812;12.872;2023-02-20T12:19:39;98003.47;;;10.45;64.53
5062;BME280;2351;50.812;12.872;2023-02-20T12:22:19;98004.00;;;10.39;65.16
5062;BME280;2351;50.812;12.872;2023-02-20T12:25:03;97988.69;;;10.43;64.56
5062;BME280;2351;50.812;12.872;2023-02-20T12:27:58;98013.00;;;10.36;65.13
5062;BME280;2351;50.812;12.872;2023-02-20T12:30:55;97998.44;;;10.42;65.25
5062;BME280;2351;50.812;12.872;2023-02-20T12:33:47;97990.75;;;10.39;65.61
5062;BME280;2351;50.812;12.872;2023-02-20T12:36:29;97953.72;;;10.39;65.47
5062;BME280;2351;50.812;12.872;2023-02-20T12:39:06;97962.75;;;10.36;65.33
5062;BME280;2351;50.812;12.872;2023-02-20T12:41:50;97968.66;;;10.29;65.25
5062;BME280;2351;50.812;12.872;2023-02-20T12:44:45;97969.75;;;10.26;64.51
5062;BME280;2351;50.812;12.872;2023-02-20T12:47:28;97968.34;;;10.22;65.38
5062;BME280;2351;50.812;12.872;2023-02-20T12:50:17;97945.56;;;10.31;65.62
5062;BME280;2351;50.812;12.872;2023-02-20T12:53:01;97956.75;;;10.34;65.61
5062;BME280;2351;50.812;12.872;2023-02-20T12:55:40;97941.50;;;10.27;65.78
5062;BME280;2351;50.812;12.872;2023-02-20T12:58:26;97940.50;;;10.39;66.33
5062;BME280;2351;50.812;12.872;2023-02-20T13:01:00;97939.69;;;10.48;64.94
5062;BME280;2351;50.812;12.872;2023-02-20T13:03:45;97925.63;;;10.48;65.42
5062;BME280;2351;50.812;12.872;2023-02-20T13:06:26;97944.59;;;10.53;64.90
5062;BME280;2351;50.812;12.872;2023-02-20T13:09:06;97938.78;;;10.59;65.02
5062;BME280;2351;50.812;12.872;2023-02-20T13:11:44;97931.22;;;10.54;65.43
5062;BME280;2351;50.812;12.872;2023-02-20T13:14:26;97912.75;;;10.64;64.98
5062;BME280;2351;50.812;12.872;2023-02-20T13:17:07;97920.13;;;10.61;65.36
5062;BME280;2351;50.812;12.872;2023-02-20T13:19:49;97910.94;;;10.65;65.49
5062;BME280;2351;50.812;12.872;2023-02-20T13:22:25;97896.88;;;10.64;65.19
5062;BME280;2351;50.812;12.872;2023-02-20T13:25:33;97886.88;;;10.68;65.05
5062;BME280;2351;50.812;12.872;2023-02-20T13:28:36;97883.13;;;10.80;65.66
5062;BME280;2351;50.812;12.872;2023-02-20T13:31:17;97861.41;;;10.87;65.02
5062;BME280;2351;50.812;12.872;2023-02-20T13:33:51;97868.38;;;10.88;65.53
5062;BME280;2351;50.812;12.872;2023-02-20T13:36:46;97858.06;;;10.84;64.61
5062;BME280;2351;50.812;12.872;2023-02-20T13:39:29;97865.84;;;10.76;65.07
5062;BME280;2351;50.812;12.872;2023-02-20T13:42:24;97870.56;;;10.73;65.74
5062;BME280;2351;50.812;12.872;2023-02-20T13:44:56;97866.06;;;10.63;66.09
5062;BME280;2351;50.812;12.872;2023-02-20T13:47:36;97861.91;;;10.61;66.26
5062;BME280;2351;50.812;12.872;2023-02-20T13:50:31;97871.69;;;10.70;65.48
5062;BME280;2351;50.812;12.872;2023-02-20T13:53:05;97861.41;;;10.77;66.36
5062;BME280;2351;50.812;12.872;2023-02-20T13:55:37;97875.91;;;10.82;65.90
5062;BME280;2351;50.812;12.872;2023-02-20T13:58:14;97861.44;;;11.06;65.85
5062;BME280;2351;50.812;12.872;2023-02-20T14:00:49;97875.53;;;11.17;64.99
5062;BME280;2351;50.812;12.872;2023-02-20T14:03:23;97863.41;;;11.14;65.04
5062;BME280;2351;50.812;12.872;2023-02-20T14:06:06;97857.81;;;11.07;64.45